createdAt,value
2019-06-26T00:00:23.276Z,17.07
2019-06-26T00:02:49.728Z,17.10
2019-06-26T00:05:16.199Z,16.67
2019-06-26T00:07:42.550Z,16.95
2019-06-26T00:10:09.215Z,16.67
2019-06-26T00:12:35.664Z,16.93
2019-06-26T00:15:03.576Z,16.25
2019-06-26T00:17:30.127Z,17.05
2019-06-26T00:19:56.509Z,17.15
2019-06-26T00:22:23.052Z,17.25
2019-06-26T00:24:49.432Z,17.00
2019-06-26T00:27:15.886Z,17.90
2019-06-26T00:29:42.259Z,17.87
2019-06-26T00:32:08.723Z,18.23
2019-06-26T00:34:35.098Z,19.60
2019-06-26T00:37:01.448Z,19.23
2019-06-26T00:39:28.023Z,18.85
2019-06-26T00:41:54.477Z,19.27
2019-06-26T00:44:20.856Z,18.25
2019-06-26T00:46:47.314Z,18.92
2019-06-26T00:49:13.667Z,18.12
2019-06-26T00:51:40.132Z,18.23
2019-06-26T00:54:09.073Z,19.25
2019-06-26T00:56:35.548Z,17.65
2019-06-26T00:59:02.109Z,18.17
2019-06-26T01:01:28.590Z,17.25
2019-06-26T01:03:56.843Z,18.82
2019-06-26T01:06:25.231Z,17.45
2019-06-26T01:08:51.799Z,19.80
2019-06-26T01:11:21.509Z,19.02
2019-06-26T01:13:57.798Z,19.35
2019-06-26T01:16:14.939Z,19.42
2019-06-26T01:18:41.407Z,20.72
2019-06-26T01:21:07.996Z,18.87
2019-06-26T01:23:34.328Z,19.45
2019-06-26T01:26:00.904Z,19.98
2019-06-26T01:28:27.246Z,19.00
2019-06-26T01:30:53.632Z,22.73
2019-06-26T01:33:20.182Z,18.05
2019-06-26T01:35:50.678Z,18.20
2019-06-26T01:38:17.216Z,18.75
2019-06-26T01:40:43.615Z,17.48
2019-06-26T01:43:09.960Z,17.60
2019-06-26T01:45:36.326Z,19.00
2019-06-26T01:48:02.771Z,17.05
2019-06-26T01:50:29.354Z,17.73
2019-06-26T01:52:55.718Z,17.45
2019-06-26T01:55:22.221Z,17.45
2019-06-26T01:57:48.589Z,18.92
2019-06-26T02:00:15.128Z,19.15
2019-06-26T02:02:41.494Z,19.52
2019-06-26T02:05:08.247Z,19.10
2019-06-26T02:07:34.630Z,19.73
2019-06-26T02:10:01.292Z,19.17
2019-06-26T02:12:27.859Z,19.77
2019-06-26T02:14:54.249Z,19.48
2019-06-26T02:17:20.753Z,19.55
2019-06-26T02:19:47.165Z,18.95
2019-06-26T02:22:13.640Z,20.17
2019-06-26T02:24:40.082Z,18.37
2019-06-26T02:27:06.556Z,19.35
2019-06-26T02:29:32.917Z,19.15
2019-06-26T02:31:59.375Z,20.25
2019-06-26T02:34:25.737Z,21.02
2019-06-26T02:36:52.301Z,19.23
2019-06-26T02:39:18.743Z,19.70
2019-06-26T02:41:45.315Z,18.45
2019-06-26T02:44:11.960Z,18.55
2019-06-26T02:46:38.443Z,18.02
2019-06-26T02:49:04.782Z,17.98
2019-06-26T02:51:31.131Z,18.10
2019-06-26T02:53:57.707Z,18.30
2019-06-26T02:56:24.167Z,17.87
2019-06-26T02:58:50.639Z,17.90
2019-06-26T03:01:17.064Z,18.42
2019-06-26T03:03:43.441Z,17.73
2019-06-26T03:06:10.000Z,19.15
2019-06-26T03:08:36.363Z,18.80
2019-06-26T03:11:02.952Z,18.20
2019-06-26T03:13:29.455Z,20.08
2019-06-26T03:15:55.834Z,18.80
2019-06-26T03:18:22.417Z,19.50
2019-06-26T03:20:50.750Z,19.80
2019-06-26T03:23:17.124Z,18.67
2019-06-26T03:25:43.485Z,18.73
2019-06-26T03:28:09.950Z,16.97
2019-06-26T03:30:36.316Z,17.70
2019-06-26T03:33:02.896Z,18.67
2019-06-26T03:35:29.333Z,18.35
2019-06-26T03:37:55.704Z,19.60
2019-06-26T03:40:22.149Z,19.55
2019-06-26T03:42:48.498Z,19.75
2019-06-26T03:45:25.249Z,19.05
2019-06-26T03:47:44.365Z,19.87
2019-06-26T03:50:11.060Z,18.98
2019-06-26T03:52:37.694Z,20.40
2019-06-26T03:55:04.365Z,19.17
2019-06-26T03:57:30.804Z,19.50
2019-06-26T03:59:57.192Z,18.82
2019-06-26T04:02:23.755Z,17.77
2019-06-26T04:04:51.936Z,18.75
2019-06-26T04:07:18.448Z,18.70
2019-06-26T04:09:44.914Z,19.77
2019-06-26T04:12:11.375Z,19.30
2019-06-26T04:14:38.115Z,18.17
2019-06-26T04:17:04.486Z,18.45
2019-06-26T04:19:31.151Z,18.35
2019-06-26T04:21:57.509Z,17.65
2019-06-26T04:24:24.072Z,17.55
2019-06-26T04:26:50.532Z,18.50
2019-06-26T04:29:17.051Z,17.98
2019-06-26T04:31:43.512Z,18.80
2019-06-26T04:34:09.986Z,18.17
2019-06-26T04:36:36.359Z,17.23
2019-06-26T04:39:04.522Z,19.10
2019-06-26T04:41:31.132Z,18.00
2019-06-26T04:43:57.475Z,19.12
2019-06-26T04:46:23.869Z,18.65
2019-06-26T04:48:50.313Z,19.30
2019-06-26T04:51:16.787Z,19.67
2019-06-26T04:53:43.247Z,19.25
2019-06-26T04:56:09.748Z,20.55
2019-06-26T04:58:36.096Z,19.82
2019-06-26T05:01:02.579Z,19.70
2019-06-26T05:03:29.015Z,18.92
2019-06-26T05:05:55.397Z,19.15
2019-06-26T05:08:21.734Z,21.42
2019-06-26T05:10:48.107Z,21.27
2019-06-26T05:13:14.455Z,22.58
2019-06-26T05:15:40.854Z,21.97
2019-06-26T05:18:07.331Z,20.70
2019-06-26T05:20:33.775Z,24.20
2019-06-26T05:23:02.028Z,22.15
2019-06-26T05:25:28.599Z,24.25
2019-06-26T05:27:55.111Z,24.27
2019-06-26T05:30:21.715Z,21.12
2019-06-26T05:32:48.269Z,23.85
2019-06-26T05:35:14.942Z,24.55
2019-06-26T05:37:41.287Z,23.73
2019-06-26T05:40:08.395Z,24.18
2019-06-26T05:42:34.864Z,24.63
2019-06-26T05:45:01.327Z,24.82
2019-06-26T05:47:27.711Z,25.97
2019-06-26T05:49:54.055Z,23.90
2019-06-26T05:52:20.423Z,25.50
2019-06-26T05:54:46.915Z,22.13
2019-06-26T05:57:13.412Z,20.65
2019-06-26T05:59:39.963Z,21.10
2019-06-26T06:02:06.459Z,21.12
2019-06-26T06:04:32.899Z,20.08
2019-06-26T06:06:59.259Z,20.45
2019-06-26T06:09:25.812Z,20.45
2019-06-26T06:11:52.471Z,20.00
2019-06-26T06:14:18.958Z,28.15
2019-06-26T06:16:47.855Z,20.35
2019-06-26T06:19:13.888Z,18.82
2019-06-26T06:21:40.366Z,18.15
2019-06-26T06:24:06.816Z,19.27
2019-06-26T06:26:33.428Z,19.73
2019-06-26T06:29:00.375Z,18.40
2019-06-26T06:31:26.996Z,19.17
2019-06-26T06:33:53.563Z,18.00
2019-06-26T06:36:20.012Z,17.87
2019-06-26T06:38:46.378Z,17.62
2019-06-26T06:41:12.822Z,19.30
2019-06-26T06:43:39.199Z,18.73
2019-06-26T06:46:05.581Z,18.10
2019-06-26T06:48:31.933Z,18.10
2019-06-26T06:50:58.387Z,18.30
2019-06-26T06:53:25.258Z,15.80
2019-06-26T06:55:51.615Z,18.55
2019-06-26T06:58:17.987Z,20.37
2019-06-26T07:00:44.370Z,17.75
2019-06-26T07:03:10.735Z,17.00
2019-06-26T07:05:37.190Z,17.73
2019-06-26T07:08:03.767Z,17.70
2019-06-26T07:10:30.410Z,17.55
2019-06-26T07:12:56.886Z,17.00
2019-06-26T07:15:23.571Z,17.67
2019-06-26T07:17:50.181Z,16.00
2019-06-26T07:20:16.712Z,15.08
2019-06-26T07:22:43.151Z,14.85
2019-06-26T07:25:09.918Z,15.83
2019-06-26T07:27:36.267Z,15.45
2019-06-26T07:30:04.162Z,13.53
2019-06-26T07:32:30.723Z,14.18
2019-06-26T07:35:00.826Z,13.03
2019-06-26T07:37:27.273Z,13.13
2019-06-26T07:39:58.802Z,15.23
2019-06-26T07:42:22.000Z,14.43
2019-06-26T07:44:48.462Z,14.70
2019-06-26T07:47:23.029Z,14.58
2019-06-26T07:49:43.383Z,15.75
2019-06-26T07:52:09.836Z,15.48
2019-06-26T07:54:36.548Z,15.28
2019-06-26T07:57:03.115Z,14.68
2019-06-26T07:59:29.591Z,14.53
2019-06-26T08:01:56.144Z,15.05
2019-06-26T08:04:22.564Z,14.63
2019-06-26T08:06:48.912Z,15.15
2019-06-26T08:09:15.384Z,14.13
2019-06-26T08:11:41.832Z,14.47
2019-06-26T08:14:08.303Z,15.03
2019-06-26T08:16:34.675Z,14.15
2019-06-26T08:19:01.139Z,14.80
2019-06-26T08:21:27.523Z,13.62
2019-06-26T08:23:54.126Z,13.48
2019-06-26T08:26:20.576Z,14.33
2019-06-26T08:28:46.947Z,15.30
2019-06-26T08:31:13.301Z,14.28
2019-06-26T08:33:39.760Z,12.95
2019-06-26T08:36:06.222Z,11.70
2019-06-26T08:38:32.678Z,11.40
2019-06-26T08:40:59.151Z,11.90
2019-06-26T08:43:25.599Z,11.80
2019-06-26T08:45:51.961Z,11.63
2019-06-26T08:48:34.915Z,11.00
2019-06-26T08:50:46.866Z,10.82
2019-06-26T08:53:13.222Z,10.88
2019-06-26T08:55:39.683Z,10.50
2019-06-26T08:58:06.059Z,11.53
2019-06-26T09:00:32.563Z,9.25
2019-06-26T09:02:58.983Z,9.05
2019-06-26T09:05:25.567Z,10.50
2019-06-26T09:07:52.238Z,10.40
2019-06-26T09:10:18.787Z,9.08
2019-06-26T09:12:45.332Z,7.72
2019-06-26T09:15:11.839Z,8.38
2019-06-26T09:17:38.291Z,8.30
2019-06-26T09:20:05.059Z,9.63
2019-06-26T09:22:31.641Z,10.65
2019-06-26T09:24:58.095Z,7.90
2019-06-26T09:27:24.648Z,9.28
2019-06-26T09:29:54.788Z,10.03
2019-06-26T09:32:21.339Z,7.80
2019-06-26T09:34:51.451Z,7.20
2019-06-26T09:37:17.900Z,7.75
2019-06-26T09:39:44.286Z,7.53
2019-06-26T09:42:10.740Z,7.97
2019-06-26T09:44:37.243Z,7.33
2019-06-26T09:47:03.784Z,7.60
2019-06-26T09:49:30.138Z,7.70
2019-06-26T09:51:56.683Z,7.03
2019-06-26T09:54:23.155Z,7.37
2019-06-26T09:56:49.610Z,7.08
2019-06-26T09:59:16.178Z,5.70
2019-06-26T10:01:42.537Z,6.33
2019-06-26T10:04:08.911Z,6.60
2019-06-26T10:06:35.371Z,5.87
2019-06-26T10:09:02.558Z,11.22
2019-06-26T10:11:29.225Z,5.45
2019-06-26T10:13:55.668Z,5.67
2019-06-26T10:16:24.492Z,7.15
2019-06-26T10:18:51.028Z,5.30
2019-06-26T10:21:17.694Z,6.65
2019-06-26T10:23:44.139Z,5.53
2019-06-26T10:26:10.527Z,5.87
2019-06-26T10:28:36.967Z,5.47
2019-06-26T10:31:03.548Z,7.22
2019-06-26T10:33:30.017Z,6.20
2019-06-26T10:35:56.687Z,7.80
2019-06-26T10:38:23.026Z,6.20
2019-06-26T10:40:49.405Z,5.72
2019-06-26T10:43:15.965Z,5.40
2019-06-26T10:45:42.558Z,7.05
2019-06-26T10:48:08.999Z,7.60
2019-06-26T10:50:47.501Z,8.38
2019-06-26T10:53:03.834Z,5.85
2019-06-26T10:55:30.311Z,6.53
2019-06-26T10:57:56.662Z,5.97
2019-06-26T11:00:23.453Z,6.45
2019-06-26T11:02:49.920Z,6.20
2019-06-26T11:05:16.424Z,9.70
2019-06-26T11:07:42.979Z,9.93
2019-06-26T11:10:09.850Z,5.92
2019-06-26T11:12:36.310Z,5.75
2019-06-26T11:15:04.447Z,6.12
2019-06-26T11:17:30.875Z,6.03
2019-06-26T11:19:57.259Z,8.80
2019-06-26T11:22:23.695Z,6.03
2019-06-26T11:24:50.127Z,7.87
2019-06-26T11:27:16.652Z,5.67
2019-06-26T11:29:43.207Z,5.87
2019-06-26T11:32:09.830Z,7.20
2019-06-26T11:34:36.326Z,7.12
2019-06-26T11:37:04.516Z,6.92
2019-06-26T11:39:31.042Z,6.17
2019-06-26T11:41:57.439Z,7.72
2019-06-26T11:44:23.898Z,6.90
2019-06-26T11:46:50.385Z,8.73
2019-06-26T11:49:16.779Z,10.95
2019-06-26T11:51:43.231Z,6.72
2019-06-26T11:54:09.582Z,7.30
2019-06-26T11:56:36.044Z,6.75
2019-06-26T11:59:02.505Z,7.95
2019-06-26T12:01:29.075Z,8.98
2019-06-26T12:03:55.427Z,6.40
2019-06-26T12:06:21.899Z,7.17
2019-06-26T12:08:48.252Z,7.40
2019-06-26T12:11:14.716Z,6.45
2019-06-26T12:13:41.120Z,7.22
2019-06-26T12:16:07.826Z,8.63
2019-06-26T12:18:34.183Z,6.78
2019-06-26T12:21:00.580Z,9.93
2019-06-26T12:23:26.945Z,9.88
2019-06-26T12:25:53.311Z,11.80
2019-06-26T12:28:19.759Z,6.20
2019-06-26T12:30:46.255Z,8.73
2019-06-26T12:33:12.706Z,9.10
2019-06-26T12:35:39.067Z,8.68
2019-06-26T12:38:05.515Z,6.42
2019-06-26T12:40:31.871Z,7.80
2019-06-26T12:42:58.362Z,10.05
2019-06-26T12:45:24.827Z,7.12
2019-06-26T12:47:51.207Z,7.83
2019-06-26T12:50:33.775Z,9.53
2019-06-26T12:52:45.848Z,8.05
2019-06-26T12:55:12.403Z,6.28
2019-06-26T12:57:38.895Z,7.22
2019-06-26T13:00:06.654Z,6.28
2019-06-26T13:02:33.035Z,6.35
2019-06-26T13:04:59.387Z,6.03
2019-06-26T13:07:25.767Z,8.58
2019-06-26T13:09:52.328Z,7.45
2019-06-26T13:12:18.693Z,6.22
2019-06-26T13:14:45.069Z,8.03
2019-06-26T13:17:11.558Z,8.45
2019-06-26T13:19:37.929Z,7.15
2019-06-26T13:22:04.434Z,6.22
2019-06-26T13:24:30.881Z,8.03
2019-06-26T13:27:02.002Z,6.33
2019-06-26T13:29:28.343Z,6.28
2019-06-26T13:31:54.761Z,7.40
2019-06-26T13:34:21.165Z,6.08
2019-06-26T13:36:47.632Z,5.42
2019-06-26T13:39:13.976Z,9.95
2019-06-26T13:41:40.363Z,9.15
2019-06-26T13:44:07.459Z,8.33
2019-06-26T13:46:33.953Z,8.40
2019-06-26T13:49:00.303Z,9.93
2019-06-26T13:51:27.131Z,9.73
2019-06-26T13:53:53.676Z,8.05
2019-06-26T13:56:20.247Z,9.58
2019-06-26T13:58:46.628Z,10.28
2019-06-26T14:01:13.095Z,8.73
2019-06-26T14:03:39.472Z,5.78
2019-06-26T14:06:05.927Z,7.85
2019-06-26T14:08:32.958Z,7.03
2019-06-26T14:10:59.631Z,8.20
2019-06-26T14:13:26.107Z,6.75
2019-06-26T14:15:52.494Z,9.85
2019-06-26T14:18:19.083Z,10.45
2019-06-26T14:20:45.627Z,6.90
2019-06-26T14:23:11.998Z,8.40
2019-06-26T14:25:38.439Z,8.78
2019-06-26T14:28:04.807Z,10.93
2019-06-26T14:30:31.260Z,9.60
2019-06-26T14:32:57.627Z,10.60
2019-06-26T14:35:24.070Z,9.58
2019-06-26T14:37:50.557Z,8.78
2019-06-26T14:40:17.932Z,8.13
2019-06-26T14:42:44.386Z,11.50
2019-06-26T14:45:10.958Z,8.20
2019-06-26T14:47:37.443Z,8.25
2019-06-26T14:50:04.601Z,10.43
2019-06-26T14:52:31.067Z,9.83
2019-06-26T14:54:57.419Z,9.13
2019-06-26T14:57:25.961Z,7.20
2019-06-26T14:59:52.043Z,9.25
2019-06-26T15:02:18.512Z,9.38
2019-06-26T15:04:48.128Z,8.95
2019-06-26T15:07:14.496Z,10.13
2019-06-26T15:09:40.900Z,9.50
2019-06-26T15:12:07.476Z,8.45
2019-06-26T15:14:33.991Z,7.35
2019-06-26T15:17:00.434Z,8.75
2019-06-26T15:19:26.778Z,8.80
2019-06-26T15:21:58.291Z,12.68
2019-06-26T15:24:21.755Z,9.25
2019-06-26T15:26:48.111Z,8.13
2019-06-26T15:29:14.484Z,10.25
2019-06-26T15:31:40.824Z,6.95
2019-06-26T15:34:07.195Z,6.83
2019-06-26T15:36:33.750Z,7.92
2019-06-26T15:39:00.137Z,7.20
2019-06-26T15:41:26.691Z,6.95
2019-06-26T15:43:53.218Z,9.63
2019-06-26T15:46:19.566Z,5.53
2019-06-26T15:48:45.588Z,12.25
2019-06-26T15:51:12.142Z,7.05
2019-06-26T15:53:38.636Z,7.28
2019-06-26T15:56:05.087Z,9.40
2019-06-26T15:58:31.575Z,10.18
2019-06-26T16:00:58.275Z,9.98
2019-06-26T16:03:27.469Z,9.38
2019-06-26T16:05:53.911Z,10.90
2019-06-26T16:08:20.292Z,7.17
2019-06-26T16:10:46.848Z,5.95
2019-06-26T16:13:13.318Z,7.53
2019-06-26T16:15:40.314Z,14.33
2019-06-26T16:18:08.700Z,10.18
2019-06-26T16:20:35.086Z,8.25
2019-06-26T16:23:01.555Z,11.33
2019-06-26T16:25:27.927Z,15.60
2019-06-26T16:28:04.809Z,12.80
2019-06-26T16:30:22.764Z,10.48
2019-06-26T16:32:49.228Z,11.33
2019-06-26T16:35:15.685Z,7.08
2019-06-26T16:37:42.127Z,8.38
2019-06-26T16:40:08.947Z,6.47
2019-06-26T16:42:35.523Z,7.17
2019-06-26T16:45:02.990Z,7.15
2019-06-26T16:47:29.673Z,9.15
2019-06-26T16:49:56.047Z,5.35
2019-06-26T16:52:22.736Z,8.98
2019-06-26T16:54:49.212Z,5.67
2019-06-26T16:57:15.755Z,7.75
2019-06-26T16:59:42.235Z,7.53
2019-06-26T17:02:08.790Z,7.78
2019-06-26T17:04:35.263Z,9.33
2019-06-26T17:07:01.709Z,10.25
2019-06-26T17:09:28.375Z,7.35
2019-06-26T17:11:54.822Z,6.08
2019-06-26T17:14:21.296Z,6.67
2019-06-26T17:16:47.770Z,8.93
2019-06-26T17:19:14.240Z,8.43
2019-06-26T17:21:40.591Z,7.90
2019-06-26T17:24:07.058Z,9.55
2019-06-26T17:26:33.507Z,5.30
2019-06-26T17:29:00.091Z,10.95
2019-06-26T17:31:26.879Z,9.25
2019-06-26T17:33:53.344Z,17.52
2019-06-26T17:36:19.787Z,7.95
2019-06-26T17:38:46.286Z,8.35
2019-06-26T17:41:12.724Z,9.55
2019-06-26T17:43:39.142Z,10.48
2019-06-26T17:46:05.670Z,10.80
2019-06-26T17:48:32.040Z,10.75
2019-06-26T17:50:58.511Z,8.38
2019-06-26T17:53:24.863Z,8.03
2019-06-26T17:55:51.341Z,7.70
2019-06-26T17:58:17.976Z,10.28
2019-06-26T18:00:44.361Z,12.15
2019-06-26T18:03:10.709Z,9.15
2019-06-26T18:05:37.279Z,7.90
2019-06-26T18:08:03.724Z,10.08
2019-06-26T18:10:30.199Z,8.68
2019-06-26T18:12:56.651Z,8.35
2019-06-26T18:15:23.167Z,5.85
2019-06-26T18:17:49.550Z,8.05
2019-06-26T18:20:16.526Z,8.78
2019-06-26T18:22:42.967Z,8.80
2019-06-26T18:25:09.967Z,8.08
2019-06-26T18:27:36.322Z,8.45
2019-06-26T18:30:04.625Z,9.05
2019-06-26T18:32:30.999Z,11.28
2019-06-26T18:34:57.474Z,11.97
2019-06-26T18:37:24.135Z,8.33
2019-06-26T18:39:50.611Z,7.72
2019-06-26T18:42:17.074Z,9.30
2019-06-26T18:44:43.457Z,11.45
2019-06-26T18:47:09.835Z,7.22
2019-06-26T18:49:36.410Z,8.73
2019-06-26T18:52:02.955Z,6.45
2019-06-26T18:54:29.441Z,10.60
2019-06-26T18:56:57.238Z,10.53
2019-06-26T18:59:23.797Z,13.30
2019-06-26T19:01:50.247Z,12.45
2019-06-26T19:04:16.603Z,7.10
2019-06-26T19:06:42.956Z,11.48
2019-06-26T19:09:09.398Z,10.23
2019-06-26T19:11:35.768Z,11.35
2019-06-26T19:14:02.322Z,8.13
2019-06-26T19:16:28.839Z,9.15
2019-06-26T19:18:57.105Z,8.43
2019-06-26T19:21:23.566Z,9.95
2019-06-26T19:23:49.916Z,7.78
2019-06-26T19:26:16.386Z,15.40
2019-06-26T19:28:42.827Z,9.80
2019-06-26T19:31:09.199Z,9.23
2019-06-26T19:33:35.582Z,12.37
2019-06-26T19:36:02.075Z,9.95
2019-06-26T19:38:28.527Z,12.00
2019-06-26T19:40:54.995Z,12.45
2019-06-26T19:43:21.454Z,13.48
2019-06-26T19:45:47.936Z,12.85
2019-06-26T19:48:14.487Z,13.30
2019-06-26T19:50:40.966Z,14.15
2019-06-26T19:53:07.519Z,15.03
2019-06-26T19:55:34.091Z,10.40
2019-06-26T19:58:00.555Z,13.53
2019-06-26T20:00:27.073Z,15.15
2019-06-26T20:02:53.538Z,11.40
2019-06-26T20:05:20.353Z,9.70
2019-06-26T20:07:46.755Z,15.53
2019-06-26T20:10:13.225Z,10.38
2019-06-26T20:12:39.574Z,10.55
2019-06-26T20:15:06.690Z,10.45
2019-06-26T20:17:33.376Z,12.60
2019-06-26T20:19:59.753Z,14.75
2019-06-26T20:22:26.099Z,10.10
2019-06-26T20:24:52.607Z,12.07
2019-06-26T20:27:18.991Z,9.73
2019-06-26T20:29:45.376Z,12.03
2019-06-26T20:32:11.764Z,13.95
2019-06-26T20:34:38.315Z,16.20
2019-06-26T20:37:04.703Z,11.43
2019-06-26T20:39:31.155Z,11.12
2019-06-26T20:41:57.627Z,10.13
2019-06-26T20:44:24.080Z,13.32
2019-06-26T20:46:50.455Z,12.58
2019-06-26T20:49:16.914Z,12.90
2019-06-26T20:51:43.303Z,12.43
2019-06-26T20:54:09.858Z,15.40
2019-06-26T20:56:36.261Z,11.63
2019-06-26T20:59:02.715Z,11.30
2019-06-26T21:01:29.103Z,10.43
2019-06-26T21:03:55.484Z,13.55
2019-06-26T21:06:22.007Z,11.18
2019-06-26T21:08:48.370Z,12.05
2019-06-26T21:11:15.945Z,11.93
2019-06-26T21:13:42.399Z,12.78
2019-06-26T21:16:08.916Z,12.33
2019-06-26T21:18:35.359Z,14.93
2019-06-26T21:21:01.752Z,15.05
2019-06-26T21:23:28.190Z,11.55
2019-06-26T21:25:54.663Z,12.23
2019-06-26T21:28:21.024Z,13.50
2019-06-26T21:30:47.402Z,11.22
2019-06-26T21:33:13.952Z,14.85
2019-06-26T21:35:40.323Z,12.60
2019-06-26T21:38:06.815Z,15.18
2019-06-26T21:40:33.298Z,13.98
2019-06-26T21:42:59.735Z,11.78
2019-06-26T21:45:26.089Z,16.77
2019-06-26T21:47:52.805Z,13.28
2019-06-26T21:50:19.479Z,15.28
2019-06-26T21:52:46.361Z,11.70
2019-06-26T21:55:12.811Z,12.95
2019-06-26T21:57:39.199Z,14.13
2019-06-26T22:00:06.188Z,15.32
2019-06-26T22:02:32.563Z,13.40
2019-06-26T22:04:59.122Z,13.65
2019-06-26T22:07:25.701Z,13.62
2019-06-26T22:09:52.255Z,15.05
2019-06-26T22:12:19.226Z,17.92
2019-06-26T22:14:45.726Z,12.95
2019-06-26T22:17:12.087Z,14.38
2019-06-26T22:19:38.497Z,13.78
2019-06-26T22:22:05.096Z,13.08
2019-06-26T22:24:31.451Z,13.65
2019-06-26T22:26:57.819Z,13.15
2019-06-26T22:29:24.278Z,16.75
2019-06-26T22:31:50.783Z,14.20
2019-06-26T22:34:17.236Z,13.35
2019-06-26T22:36:51.450Z,13.93
2019-06-26T22:39:12.059Z,14.43
2019-06-26T22:41:38.621Z,13.83
2019-06-26T22:44:05.075Z,20.45
2019-06-26T22:46:31.525Z,13.20
2019-06-26T22:48:57.905Z,14.68
2019-06-26T22:51:24.356Z,16.75
2019-06-26T22:53:50.839Z,13.00
2019-06-26T22:56:17.288Z,15.38
2019-06-26T22:58:43.684Z,15.05
2019-06-26T23:01:11.677Z,16.25
2019-06-26T23:03:38.088Z,13.30
2019-06-26T23:06:04.649Z,15.23
2019-06-26T23:08:31.122Z,18.62
2019-06-26T23:10:57.573Z,16.90
2019-06-26T23:13:24.046Z,14.28
2019-06-26T23:15:50.524Z,15.32
2019-06-26T23:18:17.107Z,16.15
2019-06-26T23:20:47.126Z,15.40
2019-06-26T23:23:13.693Z,15.80
2019-06-26T23:25:40.393Z,15.58
2019-06-26T23:28:06.787Z,15.80
2019-06-26T23:30:33.241Z,14.30
2019-06-26T23:33:00.379Z,16.57
2019-06-26T23:35:26.828Z,15.90
2019-06-26T23:37:53.336Z,16.73
2019-06-26T23:40:19.795Z,15.32
2019-06-26T23:42:46.267Z,16.20
2019-06-26T23:45:12.774Z,16.30
2019-06-26T23:47:39.217Z,15.85
2019-06-26T23:50:05.897Z,15.18
2019-06-26T23:52:32.458Z,17.05
2019-06-26T23:54:58.928Z,15.15
2019-06-26T23:57:25.319Z,16.23
2019-06-26T23:59:51.898Z,17.12
